createdAt,value
2018-06-17T00:02:15.992Z,16.60
2018-06-17T00:04:44.268Z,16.50
2018-06-17T00:07:12.472Z,16.50
2018-06-17T00:09:40.738Z,16.60
2018-06-17T00:12:09.170Z,16.60
2018-06-17T00:14:37.433Z,16.70
2018-06-17T00:17:05.673Z,16.70
2018-06-17T00:19:33.889Z,16.70
2018-06-17T00:22:02.085Z,16.70
2018-06-17T00:24:30.447Z,16.70
2018-06-17T00:26:58.659Z,16.70
2018-06-17T00:29:26.890Z,16.70
2018-06-17T00:31:55.118Z,16.60
2018-06-17T00:34:23.410Z,16.60
2018-06-17T00:36:51.633Z,16.50
2018-06-17T00:41:47.833Z,16.50
2018-06-17T00:44:16.052Z,16.60
2018-06-17T00:46:44.580Z,16.60
2018-06-17T00:49:12.868Z,16.50
2018-06-17T00:51:41.118Z,16.60
2018-06-17T00:54:09.709Z,16.60
2018-06-17T00:56:37.998Z,16.50
2018-06-17T00:59:06.209Z,16.50
2018-06-17T01:01:34.470Z,16.60
2018-06-17T01:04:02.765Z,16.60
2018-06-17T01:06:31.045Z,16.50
2018-06-17T01:13:55.305Z,16.70
2018-06-17T01:16:23.553Z,16.70
2018-06-17T01:18:51.807Z,16.70
2018-06-17T01:21:20.052Z,16.70
2018-06-17T01:23:48.253Z,16.70
2018-06-17T01:26:16.555Z,16.60
2018-06-17T01:28:44.770Z,16.60
2018-06-17T01:31:12.977Z,16.70
2018-06-17T01:33:41.249Z,16.80
2018-06-17T01:36:09.468Z,16.90
2018-06-17T01:38:37.673Z,16.90
2018-06-17T01:41:05.873Z,16.80
2018-06-17T01:43:34.397Z,16.80
2018-06-17T01:46:02.643Z,17.00
2018-06-17T01:48:30.867Z,17.10
2018-06-17T01:50:59.645Z,17.00
2018-06-17T01:53:27.846Z,17.00
2018-06-17T01:55:56.045Z,16.90
2018-06-17T01:58:24.293Z,16.80
2018-06-17T02:00:52.625Z,16.80
2018-06-17T02:03:26.298Z,16.90
2018-06-17T02:06:00.044Z,16.90
2018-06-17T02:09:31.325Z,16.90
2018-06-17T02:12:04.959Z,16.70
2018-06-17T02:14:38.825Z,16.70
2018-06-17T02:17:07.052Z,16.70
2018-06-17T02:19:35.277Z,16.80
2018-06-17T02:22:03.685Z,16.60
2018-06-17T02:24:31.945Z,16.60
2018-06-17T02:29:28.513Z,16.70
2018-06-17T02:31:56.716Z,16.70
2018-06-17T02:34:24.966Z,16.60
2018-06-17T02:36:53.220Z,16.60
2018-06-17T02:39:21.494Z,16.50
2018-06-17T02:41:49.689Z,16.60
2018-06-17T02:44:18.321Z,16.50
2018-06-17T02:46:52.078Z,16.50
2018-06-17T02:49:26.037Z,16.50
2018-06-17T02:51:59.547Z,16.60
2018-06-17T02:54:33.749Z,16.50
2018-06-17T02:57:02.877Z,16.50
2018-06-17T02:59:31.255Z,16.50
2018-06-17T03:01:59.890Z,16.40
2018-06-17T03:04:28.125Z,16.30
2018-06-17T03:06:56.360Z,16.30
2018-06-17T03:09:24.939Z,16.30
2018-06-17T03:11:53.178Z,16.40
2018-06-17T03:16:49.645Z,16.50
2018-06-17T03:19:17.949Z,16.50
2018-06-17T03:21:46.149Z,16.40
2018-06-17T03:24:14.501Z,16.40
2018-06-17T03:26:48.290Z,16.50
2018-06-17T03:29:22.305Z,16.40
2018-06-17T03:31:55.901Z,16.40
2018-06-17T03:34:24.126Z,16.50
2018-06-17T03:36:52.465Z,16.60
2018-06-17T03:41:49.217Z,16.70
2018-06-17T03:44:17.426Z,16.60
2018-06-17T03:46:45.634Z,16.70
2018-06-17T03:49:13.901Z,16.70
2018-06-17T03:51:42.083Z,16.60
2018-06-17T03:54:10.328Z,16.60
2018-06-17T03:56:39.079Z,16.60
2018-06-17T03:59:07.565Z,16.60
2018-06-17T04:01:35.846Z,16.60
2018-06-17T04:06:32.326Z,16.60
2018-06-17T04:09:00.595Z,16.50
2018-06-17T04:11:29.038Z,16.40
2018-06-17T04:13:57.246Z,16.40
2018-06-17T04:16:25.507Z,16.40
2018-06-17T04:21:21.733Z,16.50
2018-06-17T04:23:49.987Z,16.30
2018-06-17T04:26:18.557Z,16.40
2018-06-17T04:28:46.829Z,16.30
2018-06-17T04:31:15.083Z,16.20
2018-06-17T04:33:43.369Z,16.30
2018-06-17T04:36:11.679Z,16.40
2018-06-17T04:38:39.920Z,16.30
2018-06-17T04:41:08.158Z,16.40
2018-06-17T04:43:36.395Z,16.40
2018-06-17T04:46:05.005Z,16.40
2018-06-17T04:48:33.257Z,16.40
2018-06-17T04:51:01.514Z,16.40
2018-06-17T04:53:29.785Z,16.60
2018-06-17T04:55:58.055Z,16.50
2018-06-17T04:58:26.285Z,16.40
2018-06-17T05:00:54.548Z,16.30
2018-06-17T05:03:22.765Z,16.50
2018-06-17T05:05:51.515Z,16.60
2018-06-17T05:08:19.757Z,16.60
2018-06-17T05:10:48.062Z,16.70
2018-06-17T05:13:16.325Z,16.80
2018-06-17T05:15:44.577Z,16.90
2018-06-17T05:18:12.822Z,16.90
2018-06-17T05:20:41.152Z,16.90
2018-06-17T05:23:09.376Z,16.90
2018-06-17T05:25:37.682Z,16.90
2018-06-17T05:28:06.322Z,16.90
2018-06-17T05:30:34.595Z,16.90
2018-06-17T05:35:31.237Z,16.90
2018-06-17T05:37:59.480Z,17.00
2018-06-17T05:40:27.722Z,16.80
2018-06-17T05:42:56.274Z,16.90
2018-06-17T05:45:24.529Z,16.90
2018-06-17T05:47:52.753Z,16.90
2018-06-17T05:50:20.978Z,16.90
2018-06-17T05:52:49.210Z,17.10
2018-06-17T05:55:17.467Z,17.20
2018-06-17T05:57:45.702Z,17.20
2018-06-17T06:00:13.940Z,17.20
2018-06-17T06:02:42.217Z,17.20
2018-06-17T06:05:10.429Z,17.20
2018-06-17T06:07:38.653Z,17.20
2018-06-17T06:10:06.946Z,17.30
2018-06-17T06:12:35.185Z,17.30
2018-06-17T06:17:31.449Z,17.60
2018-06-17T06:19:59.755Z,17.70
2018-06-17T06:22:28.001Z,17.80
2018-06-17T06:24:56.219Z,17.80
2018-06-17T06:27:24.558Z,18.10
2018-06-17T06:29:52.787Z,18.00
2018-06-17T06:32:21.009Z,18.00
2018-06-17T06:34:49.245Z,18.00
2018-06-17T06:37:17.604Z,17.90
2018-06-17T06:39:45.770Z,17.80
2018-06-17T06:42:14.046Z,17.80
2018-06-17T06:44:42.286Z,17.70
2018-06-17T06:47:10.481Z,17.80
2018-06-17T06:49:38.704Z,17.90
2018-06-17T06:52:06.929Z,18.00
2018-06-17T06:54:35.141Z,17.90
2018-06-17T06:57:03.867Z,17.80
2018-06-17T06:59:32.094Z,17.90
2018-06-17T07:02:11.729Z,17.90
2018-06-17T07:04:51.372Z,17.90
2018-06-17T07:07:31.222Z,17.50
2018-06-17T07:10:10.665Z,17.70
2018-06-17T07:12:38.940Z,17.80
2018-06-17T07:15:07.225Z,17.90
2018-06-17T07:17:47.020Z,18.00
2018-06-17T07:20:15.265Z,18.10
2018-06-17T07:25:20.500Z,18.40
2018-06-17T07:27:58.865Z,18.30
2018-06-17T07:30:27.207Z,18.40
2018-06-17T07:32:55.468Z,18.40
2018-06-17T07:35:23.765Z,18.30
2018-06-17T07:37:52.034Z,18.30
2018-06-17T07:40:53.701Z,18.20
2018-06-17T07:43:22.112Z,18.20
2018-06-17T07:45:50.317Z,18.10
2018-06-17T07:48:31.621Z,18.20
2018-06-17T07:51:11.247Z,18.30
2018-06-17T07:53:39.841Z,18.30
2018-06-17T07:56:08.170Z,18.30
2018-06-17T07:58:36.352Z,18.50
2018-06-17T08:03:32.989Z,18.70
2018-06-17T08:06:01.240Z,18.60
2018-06-17T08:08:29.593Z,18.50
2018-06-17T08:10:57.827Z,18.40
2018-06-17T08:13:26.165Z,18.50
2018-06-17T08:15:54.670Z,18.60
2018-06-17T08:18:22.945Z,18.50
2018-06-17T08:20:51.201Z,18.60
2018-06-17T08:23:19.451Z,18.70
2018-06-17T08:25:47.722Z,18.70
2018-06-17T08:30:44.257Z,18.80
2018-06-17T08:33:12.481Z,18.80
2018-06-17T08:35:40.691Z,18.90
2018-06-17T08:40:36.893Z,18.80
2018-06-17T08:43:05.093Z,18.80
2018-06-17T08:45:33.335Z,18.70
2018-06-17T08:48:01.542Z,18.70
2018-06-17T08:50:29.829Z,18.80
2018-06-17T08:52:58.116Z,19.00
2018-06-17T08:55:26.361Z,19.00
2018-06-17T08:57:54.681Z,19.20
2018-06-17T09:02:50.902Z,19.30
2018-06-17T09:05:19.163Z,19.20
2018-06-17T09:07:47.417Z,19.20
2018-06-17T09:10:15.630Z,19.20
2018-06-17T09:12:43.850Z,18.90
2018-06-17T09:15:12.123Z,18.90
2018-06-17T09:20:08.418Z,18.80
2018-06-17T09:22:36.687Z,19.10
2018-06-17T09:25:05.205Z,19.00
2018-06-17T09:27:33.400Z,19.10
2018-06-17T09:30:01.874Z,19.00
2018-06-17T09:32:30.074Z,19.00
2018-06-17T09:34:58.334Z,19.00
2018-06-17T09:37:26.973Z,18.90
2018-06-17T09:39:55.333Z,19.00
2018-06-17T09:42:23.659Z,19.00
2018-06-17T09:44:51.941Z,19.20
2018-06-17T09:47:20.401Z,19.20
2018-06-17T09:49:48.690Z,19.30
2018-06-17T09:52:17.006Z,19.30
2018-06-17T09:54:45.273Z,19.50
2018-06-17T09:57:13.525Z,19.60
2018-06-17T09:59:41.798Z,19.90
2018-06-17T10:02:10.053Z,20.00
2018-06-17T10:04:38.288Z,20.10
2018-06-17T10:07:06.520Z,20.10
2018-06-17T10:09:46.134Z,20.00
2018-06-17T10:12:14.759Z,19.90
2018-06-17T10:14:43.030Z,19.80
2018-06-17T10:17:11.305Z,19.60
2018-06-17T10:19:39.588Z,19.40
2018-06-17T10:22:07.870Z,19.70
2018-06-17T10:24:36.111Z,19.90
2018-06-17T10:27:04.383Z,20.10
2018-06-17T10:29:32.774Z,20.00
2018-06-17T10:32:00.994Z,19.90
2018-06-17T10:34:29.285Z,19.90
2018-06-17T10:36:57.529Z,19.70
2018-06-17T10:39:26.388Z,19.90
2018-06-17T10:41:54.726Z,19.90
2018-06-17T10:44:23.048Z,19.90
2018-06-17T10:46:51.282Z,20.10
2018-06-17T10:49:19.533Z,20.10
2018-06-17T10:51:47.824Z,20.40
2018-06-17T10:54:16.365Z,20.30
2018-06-17T10:56:44.630Z,20.30
2018-06-17T10:59:12.850Z,20.00
2018-06-17T11:01:41.058Z,19.90
2018-06-17T11:04:09.286Z,19.50
2018-06-17T11:06:37.501Z,19.60
2018-06-17T11:09:07.310Z,19.70
2018-06-17T11:11:35.537Z,19.90
2018-06-17T11:14:03.789Z,20.00
2018-06-17T11:16:32.100Z,20.00
2018-06-17T11:19:00.371Z,20.10
2018-06-17T11:21:28.655Z,20.10
2018-06-17T11:23:56.893Z,20.00
2018-06-17T11:26:25.094Z,19.90
2018-06-17T11:28:53.405Z,19.90
2018-06-17T11:31:21.968Z,19.90
2018-06-17T11:33:50.513Z,19.70
2018-06-17T11:38:46.850Z,19.50
2018-06-17T11:41:15.041Z,19.50
2018-06-17T11:43:43.598Z,19.60
2018-06-17T11:46:11.869Z,20.20
2018-06-17T11:48:40.065Z,20.50
2018-06-17T11:51:08.308Z,20.80
2018-06-17T11:53:36.776Z,20.90
2018-06-17T11:56:05.090Z,21.30
2018-06-17T11:58:33.301Z,21.20
2018-06-17T12:01:01.591Z,21.10
2018-06-17T12:03:29.881Z,21.10
2018-06-17T12:05:58.538Z,21.10
2018-06-17T12:08:26.785Z,21.20
2018-06-17T12:10:55.094Z,21.20
2018-06-17T12:13:23.330Z,21.30
2018-06-17T12:15:51.697Z,21.30
2018-06-17T12:18:19.972Z,21.30
2018-06-17T12:20:48.198Z,21.20
2018-06-17T12:23:16.438Z,21.10
2018-06-17T12:25:44.693Z,21.10
2018-06-17T12:28:12.972Z,21.30
2018-06-17T12:30:41.394Z,21.30
2018-06-17T12:33:09.639Z,21.10
2018-06-17T12:35:37.863Z,21.10
2018-06-17T12:38:06.131Z,21.20
2018-06-17T12:40:34.391Z,21.00
2018-06-17T12:43:02.709Z,20.60
2018-06-17T12:45:30.984Z,20.50
2018-06-17T12:47:59.213Z,20.40
2018-06-17T12:50:27.457Z,20.50
2018-06-17T12:52:56.389Z,20.40
2018-06-17T12:57:52.839Z,20.50
2018-06-17T13:00:21.090Z,20.30
2018-06-17T13:02:49.309Z,20.30
2018-06-17T13:05:17.942Z,20.20
2018-06-17T13:07:46.649Z,20.10
2018-06-17T13:10:15.029Z,20.10
2018-06-17T13:12:43.355Z,19.90
2018-06-17T13:15:11.666Z,19.60
2018-06-17T13:17:39.890Z,19.30
2018-06-17T13:20:08.211Z,18.70
2018-06-17T13:22:36.729Z,18.20
2018-06-17T13:25:05.118Z,18.10
2018-06-17T13:27:33.345Z,18.00
2018-06-17T13:30:01.674Z,17.90
2018-06-17T13:32:30.015Z,18.00
2018-06-17T13:34:58.214Z,18.20
2018-06-17T13:37:26.436Z,18.30
2018-06-17T13:42:22.701Z,18.30
2018-06-17T13:44:51.015Z,18.30
2018-06-17T13:47:19.303Z,18.40
2018-06-17T13:49:47.507Z,18.40
2018-06-17T13:52:16.102Z,18.40
2018-06-17T13:54:44.306Z,18.50
2018-06-17T13:57:12.637Z,18.50
2018-06-17T13:59:40.940Z,18.60
2018-06-17T14:02:09.265Z,18.70
2018-06-17T14:04:37.593Z,18.70
2018-06-17T14:07:05.913Z,18.80
2018-06-17T14:09:34.240Z,18.90
2018-06-17T14:14:30.585Z,19.00
2018-06-17T14:16:58.959Z,19.00
2018-06-17T14:19:27.161Z,19.20
2018-06-17T14:21:55.533Z,19.20
2018-06-17T14:24:23.941Z,19.10
2018-06-17T14:26:52.229Z,19.20
2018-06-17T14:29:20.506Z,19.10
2018-06-17T14:34:16.868Z,19.20
2018-06-17T14:36:45.125Z,19.10
2018-06-17T14:39:13.704Z,19.10
2018-06-17T14:41:41.964Z,19.10
2018-06-17T14:44:15.622Z,19.00
2018-06-17T14:49:22.681Z,19.00
2018-06-17T14:51:56.365Z,19.10
2018-06-17T14:54:25.117Z,19.30
2018-06-17T14:56:53.358Z,19.30
2018-06-17T14:59:21.674Z,19.40
2018-06-17T15:01:50.346Z,19.30
2018-06-17T15:04:18.671Z,19.40
2018-06-17T15:06:46.942Z,19.40
2018-06-17T15:09:15.220Z,19.50
2018-06-17T15:11:43.389Z,19.40
2018-06-17T15:16:39.768Z,18.90
2018-06-17T15:21:35.998Z,18.70
2018-06-17T15:24:04.258Z,18.50
2018-06-17T15:26:32.514Z,18.30
2018-06-17T15:29:00.785Z,18.20
2018-06-17T15:31:34.506Z,18.20
2018-06-17T15:34:08.488Z,18.10
2018-06-17T15:36:42.205Z,18.10
2018-06-17T15:39:15.861Z,18.30
2018-06-17T15:41:44.265Z,18.40
2018-06-17T15:44:12.522Z,18.60
2018-06-17T15:46:40.746Z,18.50
2018-06-17T15:49:08.987Z,18.50
2018-06-17T15:51:37.299Z,18.70
2018-06-17T15:54:06.168Z,18.70
2018-06-17T15:56:34.414Z,18.70
2018-06-17T15:59:02.638Z,18.90
2018-06-17T16:03:58.986Z,18.80
2018-06-17T16:06:27.201Z,18.70
2018-06-17T16:08:55.464Z,18.60
2018-06-17T16:11:23.728Z,18.60
2018-06-17T16:13:57.317Z,18.80
2018-06-17T16:16:31.115Z,18.80
2018-06-17T16:19:04.724Z,18.90
2018-06-17T16:21:33.134Z,19.10
2018-06-17T16:24:01.373Z,19.10
2018-06-17T16:26:29.600Z,19.30
2018-06-17T16:28:57.809Z,19.30
2018-06-17T16:33:54.082Z,18.80
2018-06-17T16:36:22.354Z,18.80
2018-06-17T16:38:50.605Z,18.70
2018-06-17T16:41:18.841Z,18.70
2018-06-17T16:43:47.111Z,18.70
2018-06-17T16:46:15.336Z,18.70
2018-06-17T16:48:43.565Z,18.80
2018-06-17T16:51:17.266Z,18.80
2018-06-17T16:53:50.971Z,18.90
2018-06-17T16:56:24.683Z,18.80
2018-06-17T16:58:58.501Z,18.90
2018-06-17T17:01:26.706Z,19.00
2018-06-17T17:03:55.024Z,19.00
2018-06-17T17:06:23.398Z,18.90
2018-06-17T17:08:51.665Z,18.90
2018-06-17T17:11:19.919Z,18.90
2018-06-17T17:13:48.290Z,18.90
2018-06-17T17:16:16.682Z,18.90
2018-06-17T17:18:44.965Z,19.00
2018-06-17T17:21:13.249Z,18.90
2018-06-17T17:23:41.504Z,18.90
2018-06-17T17:26:09.725Z,18.90
2018-06-17T17:28:38.031Z,18.80
2018-06-17T17:31:06.435Z,18.80
2018-06-17T17:33:40.090Z,18.90
2018-06-17T17:36:13.805Z,19.00
2018-06-17T17:38:47.742Z,18.80
2018-06-17T17:41:15.985Z,18.80
2018-06-17T17:43:44.450Z,18.80
2018-06-17T17:46:18.108Z,18.70
2018-06-17T17:53:42.386Z,18.50
2018-06-17T17:56:10.613Z,18.50
2018-06-17T17:58:38.913Z,18.40
2018-06-17T18:01:07.267Z,18.40
2018-06-17T18:03:35.622Z,18.50
2018-06-17T18:08:31.932Z,18.40
2018-06-17T18:11:00.168Z,18.40
2018-06-17T18:13:28.371Z,18.40
2018-06-17T18:15:56.661Z,18.40
2018-06-17T18:18:24.945Z,18.30
2018-06-17T18:20:53.203Z,18.40
2018-06-17T18:23:21.905Z,18.40
2018-06-17T18:25:55.518Z,18.30
2018-06-17T18:28:29.150Z,18.20
2018-06-17T18:31:03.471Z,18.00
2018-06-17T18:33:37.149Z,18.00
2018-06-17T18:38:39.741Z,18.10
2018-06-17T18:41:08.090Z,18.00
2018-06-17T18:43:36.636Z,18.10
2018-06-17T18:46:04.923Z,18.10
2018-06-17T18:48:33.174Z,18.10
2018-06-17T18:51:01.471Z,18.20
2018-06-17T18:53:29.749Z,18.00
2018-06-17T18:55:58.001Z,18.10
2018-06-17T18:58:26.277Z,18.10
2018-06-17T19:00:54.511Z,18.00
2018-06-17T19:03:22.845Z,18.00
2018-06-17T19:08:24.510Z,17.80
2018-06-17T19:10:58.325Z,17.80
2018-06-17T19:13:32.045Z,17.60
2018-06-17T19:16:06.549Z,17.50
2018-06-17T19:18:34.823Z,17.60
2018-06-17T19:21:03.067Z,17.60
2018-06-17T19:23:31.289Z,17.50
2018-06-17T19:25:59.506Z,17.40
2018-06-17T19:28:27.806Z,17.40
2018-06-17T19:30:56.091Z,17.40
2018-06-17T19:33:24.309Z,17.50
2018-06-17T19:35:52.553Z,17.30
2018-06-17T19:38:20.810Z,17.30
2018-06-17T19:40:49.112Z,17.40
2018-06-17T19:45:45.282Z,17.30
2018-06-17T19:48:13.562Z,17.20
2018-06-17T19:50:47.574Z,17.10
2018-06-17T19:56:56.309Z,17.10
2018-06-17T20:01:58.007Z,16.90
2018-06-17T20:04:26.281Z,16.80
2018-06-17T20:06:54.509Z,16.80
2018-06-17T20:09:23.214Z,16.70
2018-06-17T20:14:19.539Z,16.80
2018-06-17T20:16:47.758Z,16.80
2018-06-17T20:19:16.057Z,16.80
2018-06-17T20:21:44.253Z,16.80
2018-06-17T20:24:12.562Z,16.80
2018-06-17T20:26:40.847Z,16.70
2018-06-17T20:29:09.217Z,16.80
2018-06-17T20:31:43.121Z,16.80
2018-06-17T20:34:16.829Z,16.80
2018-06-17T20:36:50.417Z,16.80
2018-06-17T20:39:24.004Z,16.90
2018-06-17T20:41:57.697Z,16.90
2018-06-17T20:49:22.437Z,16.90
2018-06-17T20:51:50.653Z,16.90
2018-06-17T20:54:18.901Z,17.00
2018-06-17T20:56:47.137Z,17.10
2018-06-17T20:59:15.386Z,17.10
2018-06-17T21:01:43.626Z,17.10
2018-06-17T21:04:11.874Z,17.20
2018-06-17T21:06:40.107Z,17.10
2018-06-17T21:09:09.454Z,17.20
2018-06-17T21:11:37.741Z,17.10
2018-06-17T21:14:06.150Z,17.00
2018-06-17T21:16:34.397Z,17.00
2018-06-17T21:19:08.011Z,17.20
2018-06-17T21:21:41.643Z,17.00
2018-06-17T21:24:15.289Z,17.10
2018-06-17T21:26:49.022Z,17.10
2018-06-17T21:29:17.602Z,17.20
2018-06-17T21:31:45.871Z,17.20
2018-06-17T21:34:14.110Z,17.20
2018-06-17T21:36:42.335Z,17.20
2018-06-17T21:39:11.189Z,17.00
2018-06-17T21:41:39.863Z,17.00
2018-06-17T21:44:09.090Z,17.00
2018-06-17T21:46:37.509Z,16.80
2018-06-17T21:49:05.769Z,16.90
2018-06-17T21:51:34.070Z,16.90
2018-06-17T21:54:02.279Z,17.00
2018-06-17T21:56:30.505Z,17.00
2018-06-17T21:58:59.058Z,17.10
2018-06-17T22:03:59.531Z,17.10
2018-06-17T22:06:27.762Z,17.10
2018-06-17T22:09:01.436Z,17.20
2018-06-17T22:11:35.130Z,17.20
2018-06-17T22:14:08.798Z,17.30
2018-06-17T22:16:42.490Z,17.30
2018-06-17T22:19:16.701Z,17.30
2018-06-17T22:21:44.962Z,17.30
2018-06-17T22:24:13.241Z,17.40
2018-06-17T22:26:41.941Z,17.40
2018-06-17T22:29:10.193Z,17.40
2018-06-17T22:31:38.523Z,17.40
2018-06-17T22:39:03.042Z,17.20
2018-06-17T22:41:31.304Z,17.10
2018-06-17T22:43:59.681Z,17.10
2018-06-17T22:48:56.253Z,17.30
2018-06-17T22:51:24.495Z,17.20
2018-06-17T22:54:04.141Z,17.30
2018-06-17T22:57:35.560Z,17.20
2018-06-17T23:00:09.805Z,17.10
2018-06-17T23:02:43.498Z,17.20
2018-06-17T23:07:50.686Z,17.40
2018-06-17T23:10:18.937Z,17.40
2018-06-17T23:12:47.191Z,17.30
2018-06-17T23:17:43.424Z,17.10
2018-06-17T23:20:11.648Z,17.00
2018-06-17T23:22:39.909Z,17.00
2018-06-17T23:25:08.160Z,17.10
2018-06-17T23:27:36.371Z,17.10
2018-06-17T23:30:04.816Z,16.90
2018-06-17T23:32:33.027Z,16.90
2018-06-17T23:35:01.291Z,16.90
2018-06-17T23:37:29.627Z,17.00
2018-06-17T23:39:57.930Z,17.00
2018-06-17T23:42:26.124Z,16.90
2018-06-17T23:47:27.833Z,16.70
2018-06-17T23:50:01.518Z,16.60
2018-06-17T23:52:34.998Z,16.40
2018-06-17T23:55:08.687Z,16.50
2018-06-17T23:57:36.909Z,16.50
